sensor_id;sensor_type;location;lat;lon;timestamp;pressure;altitude;pressure_sealevel;temperature;humidity
74649;BME280;63168;49.280;7.214;2022-12-01T00:01:40;99379.03;;;15.54;53.82
74649;BME280;63168;49.280;7.214;2022-12-01T00:04:05;99373.88;;;15.52;53.84
74649;BME280;63168;49.280;7.214;2022-12-01T00:06:31;99370.38;;;15.52;53.72
74649;BME280;63168;49.280;7.214;2022-12-01T00:08:56;99365.94;;;15.52;53.74
74649;BME280;63168;49.280;7.214;2022-12-01T00:11:40;99374.78;;;15.51;53.70
74649;BME280;63168;49.280;7.214;2022-12-01T00:14:06;99378.28;;;15.52;53.65
74649;BME280;63168;49.280;7.214;2022-12-01T00:16:33;99376.59;;;15.51;53.71
74649;BME280;63168;49.280;7.214;2022-12-01T00:18:58;99369.50;;;15.51;53.98
74649;BME280;63168;49.280;7.214;2022-12-01T00:21:25;99367.81;;;15.50;53.97
74649;BME280;63168;49.280;7.214;2022-12-01T00:23:52;99366.03;;;15.51;53.70
74649;BME280;63168;49.280;7.214;2022-12-01T00:26:19;99364.31;;;15.50;54.08
74649;BME280;63168;49.280;7.214;2022-12-01T00:28:47;99365.16;;;15.50;53.81
74649;BME280;63168;49.280;7.214;2022-12-01T00:31:12;99369.59;;;15.50;54.03
74649;BME280;63168;49.280;7.214;2022-12-01T00:33:39;99371.31;;;15.51;53.68
74649;BME280;63168;49.280;7.214;2022-12-01T00:36:05;99368.78;;;15.49;53.65
74649;BME280;63168;49.280;7.214;2022-12-01T00:38:31;99375.75;;;15.50;53.86
74649;BME280;63168;49.280;7.214;2022-12-01T00:40:57;99369.59;;;15.50;53.72
74649;BME280;63168;49.280;7.214;2022-12-01T00:43:22;99371.41;;;15.49;53.98
74649;BME280;63168;49.280;7.214;2022-12-01T00:45:49;99367.91;;;15.49;53.90
74649;BME280;63168;49.280;7.214;2022-12-01T00:48:14;99368.78;;;15.49;53.64
74649;BME280;63168;49.280;7.214;2022-12-01T00:50:42;99368.78;;;15.49;53.83
74649;BME280;63168;49.280;7.214;2022-12-01T00:53:07;99363.47;;;15.49;53.70
74649;BME280;63168;49.280;7.214;2022-12-01T00:55:33;99366.13;;;15.49;53.95
74649;BME280;63168;49.280;7.214;2022-12-01T00:57:58;99371.41;;;15.49;53.79
74649;BME280;63168;49.280;7.214;2022-12-01T01:00:24;99374.06;;;15.49;53.59
74649;BME280;63168;49.280;7.214;2022-12-01T01:02:49;99370.56;;;15.49;53.85
74649;BME280;63168;49.280;7.214;2022-12-01T01:05:15;99367.03;;;15.48;53.74
74649;BME280;63168;49.280;7.214;2022-12-01T01:07:42;99371.50;;;15.48;53.96
74649;BME280;63168;49.280;7.214;2022-12-01T01:10:07;99372.34;;;15.48;53.56
74649;BME280;63168;49.280;7.214;2022-12-01T01:12:33;99376.78;;;15.48;53.58
74649;BME280;63168;49.280;7.214;2022-12-01T01:14:58;99374.97;;;15.48;53.96
74649;BME280;63168;49.280;7.214;2022-12-01T01:17:24;99384.63;;;15.49;53.64
74649;BME280;63168;49.280;7.214;2022-12-01T01:19:51;99380.25;;;15.48;53.72
74649;BME280;63168;49.280;7.214;2022-12-01T01:22:16;99381.22;;;15.47;53.61
74649;BME280;63168;49.280;7.214;2022-12-01T01:24:43;99386.50;;;15.47;53.90
74649;BME280;63168;49.280;7.214;2022-12-01T01:27:08;99390.97;;;15.46;53.84
74649;BME280;63168;49.280;7.214;2022-12-01T01:29:35;99396.25;;;15.46;53.61
74649;BME280;63168;49.280;7.214;2022-12-01T01:32:00;99392.75;;;15.46;53.43
74649;BME280;63168;49.280;7.214;2022-12-01T01:34:25;99391.78;;;15.47;53.84
74649;BME280;63168;49.280;7.214;2022-12-01T01:36:51;99392.66;;;15.48;53.44
74649;BME280;63168;49.280;7.214;2022-12-01T01:39:16;99390.09;;;15.46;53.56
74649;BME280;63168;49.280;7.214;2022-12-01T01:41:43;99389.22;;;15.45;53.95
74649;BME280;63168;49.280;7.214;2022-12-01T01:44:47;99390.97;;;15.46;53.75
74649;BME280;63168;49.280;7.214;2022-12-01T01:47:13;99395.38;;;15.46;53.52
74649;BME280;63168;49.280;7.214;2022-12-01T01:49:40;99388.41;;;15.45;53.73
74649;BME280;63168;49.280;7.214;2022-12-01T01:52:05;99396.25;;;15.46;54.29
74649;BME280;63168;49.280;7.214;2022-12-01T01:54:35;99399.34;;;15.53;54.77
74649;BME280;63168;49.280;7.214;2022-12-01T01:57:04;99398.69;;;15.64;55.44
74649;BME280;63168;49.280;7.214;2022-12-01T01:59:35;99403.41;;;15.74;55.55
74649;BME280;63168;49.280;7.214;2022-12-01T02:02:02;99399.44;;;15.81;55.93
74649;BME280;63168;49.280;7.214;2022-12-01T02:04:31;99401.59;;;15.89;55.81
74649;BME280;63168;49.280;7.214;2022-12-01T02:06:58;99408.22;;;15.96;56.00
74649;BME280;63168;49.280;7.214;2022-12-01T02:09:24;99398.22;;;16.01;55.85
74649;BME280;63168;49.280;7.214;2022-12-01T02:12:04;99399.63;;;16.07;55.99
74649;BME280;63168;49.280;7.214;2022-12-01T02:14:47;99397.50;;;16.12;56.14
74649;BME280;63168;49.280;7.214;2022-12-01T02:17:25;99393.81;;;16.15;56.14
74649;BME280;63168;49.280;7.214;2022-12-01T02:20:32;99392.66;;;16.19;56.18
74649;BME280;63168;49.280;7.214;2022-12-01T02:26:16;99391.41;;;16.25;55.81
74649;BME280;63168;49.280;7.214;2022-12-01T02:28:56;99392.09;;;16.28;55.88
74649;BME280;63168;49.280;7.214;2022-12-01T02:31:35;99394.53;;;16.31;55.90
74649;BME280;63168;49.280;7.214;2022-12-01T02:34:07;99388.19;;;16.34;55.99
74649;BME280;63168;49.280;7.214;2022-12-01T02:36:36;99382.81;;;16.35;55.92
74649;BME280;63168;49.280;7.214;2022-12-01T02:39:07;99389.69;;;16.38;56.04
74649;BME280;63168;49.280;7.214;2022-12-01T02:41:37;99386.00;;;16.41;55.80
74649;BME280;63168;49.280;7.214;2022-12-01T02:44:07;99385.06;;;16.42;56.01
74649;BME280;63168;49.280;7.214;2022-12-01T02:46:38;99378.72;;;16.44;55.79
74649;BME280;63168;49.280;7.214;2022-12-01T02:49:08;99375.09;;;16.45;55.69
74649;BME280;63168;49.280;7.214;2022-12-01T02:51:36;99378.63;;;16.46;55.69
74649;BME280;63168;49.280;7.214;2022-12-01T02:54:04;99378.41;;;16.49;55.73
74649;BME280;63168;49.280;7.214;2022-12-01T02:56:30;99377.47;;;16.50;56.11
74649;BME280;63168;49.280;7.214;2022-12-01T02:58:56;99382.66;;;16.52;56.07
74649;BME280;63168;49.280;7.214;2022-12-01T03:01:34;99379.06;;;16.53;55.94
74649;BME280;63168;49.280;7.214;2022-12-01T03:04:19;99380.63;;;16.55;55.97
74649;BME280;63168;49.280;7.214;2022-12-01T03:06:57;99383.19;;;16.57;55.73
74649;BME280;63168;49.280;7.214;2022-12-01T03:09:29;99373.47;;;16.57;55.71
74649;BME280;63168;49.280;7.214;2022-12-01T03:12:04;99378.66;;;16.59;55.77
74649;BME280;63168;49.280;7.214;2022-12-01T03:14:39;99378.56;;;16.60;55.89
74649;BME280;63168;49.280;7.214;2022-12-01T03:17:07;99379.38;;;16.61;55.93
74649;BME280;63168;49.280;7.214;2022-12-01T03:19:40;99386.41;;;16.62;55.87
74649;BME280;63168;49.280;7.214;2022-12-01T03:22:09;99381.84;;;16.64;55.74
74649;BME280;63168;49.280;7.214;2022-12-01T03:24:37;99385.25;;;16.66;55.75
74649;BME280;63168;49.280;7.214;2022-12-01T03:27:06;99383.41;;;16.67;55.71
74649;BME280;63168;49.280;7.214;2022-12-01T03:29:35;99380.69;;;16.68;55.67
74649;BME280;63168;49.280;7.214;2022-12-01T03:32:07;99372.72;;;16.68;55.72
74649;BME280;63168;49.280;7.214;2022-12-01T03:34:39;99380.56;;;16.70;56.00
74649;BME280;63168;49.280;7.214;2022-12-01T03:37:10;99375.28;;;16.70;56.03
74649;BME280;63168;49.280;7.214;2022-12-01T03:39:38;99371.66;;;16.71;55.75
74649;BME280;63168;49.280;7.214;2022-12-01T03:42:09;99383.13;;;16.71;55.66
74649;BME280;63168;49.280;7.214;2022-12-01T03:44:40;99374.22;;;16.72;55.99
74649;BME280;63168;49.280;7.214;2022-12-01T03:47:09;99373.28;;;16.73;55.67
74649;BME280;63168;49.280;7.214;2022-12-01T03:49:38;99382.06;;;16.74;55.68
74649;BME280;63168;49.280;7.214;2022-12-01T03:52:12;99382.06;;;16.74;56.10
74649;BME280;63168;49.280;7.214;2022-12-01T03:54:45;99380.19;;;16.76;55.98
74649;BME280;63168;49.280;7.214;2022-12-01T03:57:19;99383.66;;;16.77;55.83
74649;BME280;63168;49.280;7.214;2022-12-01T03:59:48;99385.38;;;16.78;56.10
74649;BME280;63168;49.280;7.214;2022-12-01T04:02:13;99390.56;;;16.79;56.03
74649;BME280;63168;49.280;7.214;2022-12-01T04:04:40;99391.41;;;16.80;55.87
74649;BME280;63168;49.280;7.214;2022-12-01T04:07:06;99390.56;;;16.79;56.04
74649;BME280;63168;49.280;7.214;2022-12-01T04:09:31;99394.91;;;16.80;56.02
74649;BME280;63168;49.280;7.214;2022-12-01T04:11:57;99383.34;;;16.81;55.98
74649;BME280;63168;49.280;7.214;2022-12-01T04:14:41;99387.69;;;16.82;55.91
74649;BME280;63168;49.280;7.214;2022-12-01T04:17:06;99389.50;;;16.82;55.56
74649;BME280;63168;49.280;7.214;2022-12-01T04:19:32;99385.91;;;16.83;55.54
74649;BME280;63168;49.280;7.214;2022-12-01T04:21:59;99381.47;;;16.83;55.95
74649;BME280;63168;49.280;7.214;2022-12-01T04:24:24;99383.16;;;16.84;55.54
74649;BME280;63168;49.280;7.214;2022-12-01T04:26:50;99388.34;;;16.86;55.66
74649;BME280;63168;49.280;7.214;2022-12-01T04:29:15;99386.56;;;16.86;55.81
74649;BME280;63168;49.280;7.214;2022-12-01T04:31:40;99381.25;;;16.86;55.82
74649;BME280;63168;49.280;7.214;2022-12-01T04:34:06;99389.22;;;16.86;55.56
74649;BME280;63168;49.280;7.214;2022-12-01T04:36:33;99387.38;;;16.87;56.02
74649;BME280;63168;49.280;7.214;2022-12-01T04:39:01;99388.25;;;16.87;55.57
74649;BME280;63168;49.280;7.214;2022-12-01T04:41:28;99389.94;;;16.89;55.55
74649;BME280;63168;49.280;7.214;2022-12-01T04:43:54;99389.94;;;16.89;55.84
74649;BME280;63168;49.280;7.214;2022-12-01T04:46:20;99389.94;;;16.89;55.72
74649;BME280;63168;49.280;7.214;2022-12-01T04:48:46;99388.16;;;16.89;55.64
74649;BME280;63168;49.280;7.214;2022-12-01T04:51:11;99392.47;;;16.90;55.89
74649;BME280;63168;49.280;7.214;2022-12-01T04:53:37;99388.16;;;16.89;55.88
74649;BME280;63168;49.280;7.214;2022-12-01T04:56:05;99388.03;;;16.91;55.73
74649;BME280;63168;49.280;7.214;2022-12-01T04:58:31;99391.53;;;16.91;55.41
74649;BME280;63168;49.280;7.214;2022-12-01T05:01:00;99390.59;;;16.92;55.61
74649;BME280;63168;49.280;7.214;2022-12-01T05:03:26;99395.03;;;16.92;55.51
74649;BME280;63168;49.280;7.214;2022-12-01T05:05:59;99395.91;;;16.92;55.44
74649;BME280;63168;49.280;7.214;2022-12-01T05:08:25;99394.94;;;16.93;55.37
74649;BME280;63168;49.280;7.214;2022-12-01T05:10:53;99396.72;;;16.93;55.38
74649;BME280;63168;49.280;7.214;2022-12-01T05:13:20;99399.28;;;16.94;55.65
74649;BME280;63168;49.280;7.214;2022-12-01T05:15:46;99398.44;;;16.94;55.65
74649;BME280;63168;49.280;7.214;2022-12-01T05:18:11;99397.47;;;16.95;55.82
74649;BME280;63168;49.280;7.214;2022-12-01T05:20:37;99398.31;;;16.95;55.52
74649;BME280;63168;49.280;7.214;2022-12-01T05:23:21;99397.38;;;16.96;55.66
74649;BME280;63168;49.280;7.214;2022-12-01T05:25:46;99397.38;;;16.96;55.71
74649;BME280;63168;49.280;7.214;2022-12-01T05:28:12;99390.25;;;16.97;55.54
74649;BME280;63168;49.280;7.214;2022-12-01T05:30:38;99396.41;;;16.97;55.50
74649;BME280;63168;49.280;7.214;2022-12-01T05:33:05;99397.19;;;16.99;55.74
74649;BME280;63168;49.280;7.214;2022-12-01T05:35:31;99398.97;;;16.99;55.45
74649;BME280;63168;49.280;7.214;2022-12-01T05:37:57;99393.66;;;16.99;55.76
74649;BME280;63168;49.280;7.214;2022-12-01T05:40:22;99398.00;;;17.00;55.50
74649;BME280;63168;49.280;7.214;2022-12-01T05:42:48;99400.66;;;17.00;55.74
74649;BME280;63168;49.280;7.214;2022-12-01T05:45:13;99397.19;;;16.99;55.68
74649;BME280;63168;49.280;7.214;2022-12-01T05:47:40;99397.19;;;16.99;55.28
74649;BME280;63168;49.280;7.214;2022-12-01T05:50:07;99396.22;;;17.00;55.30
74649;BME280;63168;49.280;7.214;2022-12-01T05:52:32;99399.72;;;17.01;55.53
74649;BME280;63168;49.280;7.214;2022-12-01T05:54:58;99397.06;;;17.01;55.55
74649;BME280;63168;49.280;7.214;2022-12-01T05:57:23;99398.75;;;17.02;55.59
74649;BME280;63168;49.280;7.214;2022-12-01T05:59:49;99403.09;;;17.03;55.19
74649;BME280;63168;49.280;7.214;2022-12-01T06:02:14;99401.41;;;17.02;55.34
74649;BME280;63168;49.280;7.214;2022-12-01T06:04:41;99400.44;;;17.03;55.30
74649;BME280;63168;49.280;7.214;2022-12-01T06:07:07;99403.09;;;17.03;55.54
74649;BME280;63168;49.280;7.214;2022-12-01T06:09:32;99403.97;;;17.04;55.40
74649;BME280;63168;49.280;7.214;2022-12-01T06:11:58;99403.09;;;17.03;55.58
74649;BME280;63168;49.280;7.214;2022-12-01T06:14:23;99404.78;;;17.04;55.10
74649;BME280;63168;49.280;7.214;2022-12-01T06:16:48;99404.78;;;17.04;55.57
74649;BME280;63168;49.280;7.214;2022-12-01T06:19:14;99400.44;;;17.03;55.60
74649;BME280;63168;49.280;7.214;2022-12-01T06:21:40;99398.66;;;17.04;55.51
74649;BME280;63168;49.280;7.214;2022-12-01T06:24:06;99402.13;;;17.04;55.30
74649;BME280;63168;49.280;7.214;2022-12-01T06:26:32;99400.34;;;17.05;55.57
74649;BME280;63168;49.280;7.214;2022-12-01T06:28:57;99402.13;;;17.04;55.35
74649;BME280;63168;49.280;7.214;2022-12-01T06:31:22;99397.63;;;17.06;55.08
74649;BME280;63168;49.280;7.214;2022-12-01T06:33:48;99399.41;;;17.06;55.32
74649;BME280;63168;49.280;7.214;2022-12-01T06:36:13;99405.66;;;17.05;55.33
74649;BME280;63168;49.280;7.214;2022-12-01T06:38:40;99411.75;;;17.07;55.13
74649;BME280;63168;49.280;7.214;2022-12-01T06:41:05;99409.91;;;17.07;55.22
74649;BME280;63168;49.280;7.214;2022-12-01T06:43:31;99412.56;;;17.07;55.08
74649;BME280;63168;49.280;7.214;2022-12-01T06:45:56;99413.44;;;17.08;55.07
74649;BME280;63168;49.280;7.214;2022-12-01T06:48:22;99422.22;;;17.08;55.08
74649;BME280;63168;49.280;7.214;2022-12-01T06:50:47;99423.94;;;17.09;54.94
74649;BME280;63168;49.280;7.214;2022-12-01T06:53:13;99423.94;;;17.09;55.02
74649;BME280;63168;49.280;7.214;2022-12-01T06:55:40;99418.63;;;17.09;55.33
74649;BME280;63168;49.280;7.214;2022-12-01T06:58:05;99422.97;;;17.10;55.35
74649;BME280;63168;49.280;7.214;2022-12-01T07:00:31;99418.63;;;17.09;54.99
74649;BME280;63168;49.280;7.214;2022-12-01T07:02:56;99418.63;;;17.09;55.38
74649;BME280;63168;49.280;7.214;2022-12-01T07:05:22;99431.88;;;17.09;55.07
74649;BME280;63168;49.280;7.214;2022-12-01T07:07:47;99437.28;;;17.08;55.31
74649;BME280;63168;49.280;7.214;2022-12-01T07:10:12;99431.00;;;17.09;55.14
74649;BME280;63168;49.280;7.214;2022-12-01T07:12:39;99433.66;;;17.09;55.20
74649;BME280;63168;49.280;7.214;2022-12-01T07:15:06;99440.03;;;17.06;55.24
74649;BME280;63168;49.280;7.214;2022-12-01T07:17:32;99441.06;;;17.04;54.92
74649;BME280;63168;49.280;7.214;2022-12-01T07:19:57;99443.03;;;17.00;54.79
74649;BME280;63168;49.280;7.214;2022-12-01T07:22:23;99451.19;;;16.97;54.95
74649;BME280;63168;49.280;7.214;2022-12-01T07:24:48;99449.59;;;16.94;54.79
74649;BME280;63168;49.280;7.214;2022-12-01T07:27:14;99446.31;;;16.91;54.60
74649;BME280;63168;49.280;7.214;2022-12-01T07:29:40;99448.22;;;16.89;54.51
74649;BME280;63168;49.280;7.214;2022-12-01T07:32:06;99452.69;;;16.88;54.69
74649;BME280;63168;49.280;7.214;2022-12-01T07:34:31;99457.13;;;16.87;55.20
74649;BME280;63168;49.280;7.214;2022-12-01T07:36:57;99453.31;;;16.92;55.38
74649;BME280;63168;49.280;7.214;2022-12-01T07:39:22;99462.03;;;16.94;55.53
74649;BME280;63168;49.280;7.214;2022-12-01T07:41:48;99469.84;;;16.95;55.52
74649;BME280;63168;49.280;7.214;2022-12-01T07:44:13;99466.16;;;16.98;55.40
74649;BME280;63168;49.280;7.214;2022-12-01T07:46:40;99466.88;;;17.00;55.36
74649;BME280;63168;49.280;7.214;2022-12-01T07:49:06;99460.66;;;17.01;55.20
74649;BME280;63168;49.280;7.214;2022-12-01T07:51:32;99472.00;;;17.03;55.54
74649;BME280;63168;49.280;7.214;2022-12-01T07:54:01;99471.03;;;17.04;55.34
74649;BME280;63168;49.280;7.214;2022-12-01T07:56:26;99471.81;;;17.06;55.37
74649;BME280;63168;49.280;7.214;2022-12-01T07:58:52;99478.06;;;17.05;55.36
74649;BME280;63168;49.280;7.214;2022-12-01T08:01:18;99471.81;;;17.06;55.43
74649;BME280;63168;49.280;7.214;2022-12-01T08:03:46;99475.19;;;17.08;55.22
74649;BME280;63168;49.280;7.214;2022-12-01T08:06:12;99475.19;;;17.08;55.11
74649;BME280;63168;49.280;7.214;2022-12-01T08:08:39;99479.56;;;17.09;54.92
74649;BME280;63168;49.280;7.214;2022-12-01T08:11:06;99478.63;;;17.10;54.98
74649;BME280;63168;49.280;7.214;2022-12-01T08:13:33;99480.31;;;17.11;55.27
74649;BME280;63168;49.280;7.214;2022-12-01T08:16:02;99483.81;;;17.12;54.93
74649;BME280;63168;49.280;7.214;2022-12-01T08:18:27;99480.31;;;17.11;55.27
74649;BME280;63168;49.280;7.214;2022-12-01T08:20:56;99478.50;;;17.12;54.97
74649;BME280;63168;49.280;7.214;2022-12-01T08:23:24;99489.00;;;17.14;54.74
74649;BME280;63168;49.280;7.214;2022-12-01T08:25:50;99485.41;;;17.15;54.71
74649;BME280;63168;49.280;7.214;2022-12-01T08:28:16;99486.38;;;17.14;54.91
74649;BME280;63168;49.280;7.214;2022-12-01T08:30:42;99496.00;;;17.15;54.89
74649;BME280;63168;49.280;7.214;2022-12-01T08:33:07;99490.69;;;17.15;54.87
74649;BME280;63168;49.280;7.214;2022-12-01T08:35:34;99499.50;;;17.15;55.05
74649;BME280;63168;49.280;7.214;2022-12-01T08:38:02;99502.16;;;17.15;54.59
74649;BME280;63168;49.280;7.214;2022-12-01T08:40:27;99500.34;;;17.16;54.83
74649;BME280;63168;49.280;7.214;2022-12-01T08:42:52;99499.41;;;17.17;54.85
74649;BME280;63168;49.280;7.214;2022-12-01T08:45:18;99503.75;;;17.18;55.03
74649;BME280;63168;49.280;7.214;2022-12-01T08:47:43;99506.41;;;17.18;54.70
74649;BME280;63168;49.280;7.214;2022-12-01T08:50:09;99505.44;;;17.19;54.95
74649;BME280;63168;49.280;7.214;2022-12-01T08:52:35;99503.66;;;17.19;54.95
74649;BME280;63168;49.280;7.214;2022-12-01T08:55:03;99508.00;;;17.20;54.84
74649;BME280;63168;49.280;7.214;2022-12-01T08:57:29;99507.91;;;17.22;54.88
74649;BME280;63168;49.280;7.214;2022-12-01T08:59:54;99502.59;;;17.22;54.90
74649;BME280;63168;49.280;7.214;2022-12-01T09:02:20;99511.31;;;17.24;54.59
74649;BME280;63168;49.280;7.214;2022-12-01T09:04:48;99504.19;;;17.24;54.88
74649;BME280;63168;49.280;7.214;2022-12-01T09:07:17;99514.78;;;17.24;54.90
74649;BME280;63168;49.280;7.214;2022-12-01T09:09:44;99513.00;;;17.25;54.94
74649;BME280;63168;49.280;7.214;2022-12-01T09:12:11;99509.38;;;17.26;54.82
74649;BME280;63168;49.280;7.214;2022-12-01T09:14:37;99508.56;;;17.25;54.77
74649;BME280;63168;49.280;7.214;2022-12-01T09:17:04;99514.69;;;17.26;54.59
74649;BME280;63168;49.280;7.214;2022-12-01T09:19:30;99515.53;;;17.27;54.55
74649;BME280;63168;49.280;7.214;2022-12-01T09:21:55;99519.88;;;17.28;54.79
74649;BME280;63168;49.280;7.214;2022-12-01T09:24:21;99518.09;;;17.28;54.78
74649;BME280;63168;49.280;7.214;2022-12-01T09:26:47;99518.09;;;17.28;54.79
74649;BME280;63168;49.280;7.214;2022-12-01T09:29:15;99519.78;;;17.29;54.55
74649;BME280;63168;49.280;7.214;2022-12-01T09:31:41;99525.09;;;17.29;54.54
74649;BME280;63168;49.280;7.214;2022-12-01T09:34:10;99525.94;;;17.30;54.54
74649;BME280;63168;49.280;7.214;2022-12-01T09:36:37;99527.63;;;17.31;54.95
74649;BME280;63168;49.280;7.214;2022-12-01T09:39:04;99528.50;;;17.31;54.74
74649;BME280;63168;49.280;7.214;2022-12-01T09:41:32;99525.84;;;17.31;54.47
74649;BME280;63168;49.280;7.214;2022-12-01T09:44:01;99523.09;;;17.33;54.61
74649;BME280;63168;49.280;7.214;2022-12-01T09:46:48;99521.28;;;17.33;54.74
74649;BME280;63168;49.280;7.214;2022-12-01T09:49:18;99525.63;;;17.34;54.77
74649;BME280;63168;49.280;7.214;2022-12-01T09:51:47;99518.53;;;17.35;54.95
74649;BME280;63168;49.280;7.214;2022-12-01T09:54:13;99515.97;;;17.33;55.02
74649;BME280;63168;49.280;7.214;2022-12-01T09:56:42;99519.38;;;17.35;54.62
74649;BME280;63168;49.280;7.214;2022-12-01T09:59:17;99514.09;;;17.35;54.48
74649;BME280;63168;49.280;7.214;2022-12-01T10:01:50;99517.47;;;17.37;54.57
74649;BME280;63168;49.280;7.214;2022-12-01T10:04:19;99507.81;;;17.36;54.68
74649;BME280;63168;49.280;7.214;2022-12-01T10:06:48;99513.88;;;17.38;54.72
74649;BME280;63168;49.280;7.214;2022-12-01T10:09:20;99516.53;;;17.38;54.70
74649;BME280;63168;49.280;7.214;2022-12-01T10:11:49;99509.41;;;17.39;54.54
74649;BME280;63168;49.280;7.214;2022-12-01T10:14:18;99508.59;;;17.38;54.86
74649;BME280;63168;49.280;7.214;2022-12-01T10:16:50;99507.63;;;17.40;54.46
74649;BME280;63168;49.280;7.214;2022-12-01T10:19:23;99498.69;;;17.41;54.81
74649;BME280;63168;49.280;7.214;2022-12-01T10:22:00;99496.06;;;17.41;54.74
74649;BME280;63168;49.280;7.214;2022-12-01T10:24:45;99500.50;;;17.40;54.44
74649;BME280;63168;49.280;7.214;2022-12-01T10:27:22;99497.75;;;17.42;54.58
74649;BME280;63168;49.280;7.214;2022-12-01T10:29:57;99500.38;;;17.42;54.80
74649;BME280;63168;49.280;7.214;2022-12-01T10:32:31;99503.91;;;17.42;54.53
74649;BME280;63168;49.280;7.214;2022-12-01T10:35:01;99502.13;;;17.43;54.91
74649;BME280;63168;49.280;7.214;2022-12-01T10:37:28;99498.50;;;17.44;54.49
74649;BME280;63168;49.280;7.214;2022-12-01T10:39:56;99497.63;;;17.43;54.60
74649;BME280;63168;49.280;7.214;2022-12-01T10:42:29;99495.84;;;17.44;54.78
74649;BME280;63168;49.280;7.214;2022-12-01T10:44:56;99494.06;;;17.44;54.51
74649;BME280;63168;49.280;7.214;2022-12-01T10:47:26;99497.53;;;17.45;54.74
74649;BME280;63168;49.280;7.214;2022-12-01T10:49:53;99500.19;;;17.45;54.46
74649;BME280;63168;49.280;7.214;2022-12-01T10:52:40;99496.72;;;17.44;54.42
74649;BME280;63168;49.280;7.214;2022-12-01T10:55:24;99492.22;;;17.45;54.89
74649;BME280;63168;49.280;7.214;2022-12-01T10:57:52;99492.22;;;17.45;54.88
74649;BME280;63168;49.280;7.214;2022-12-01T11:00:20;99490.34;;;17.47;54.67
74649;BME280;63168;49.280;7.214;2022-12-01T11:02:47;99490.34;;;17.47;54.47
74649;BME280;63168;49.280;7.214;2022-12-01T11:05:20;99485.03;;;17.47;54.76
74649;BME280;63168;49.280;7.214;2022-12-01T11:07:46;99479.63;;;17.48;54.66
74649;BME280;63168;49.280;7.214;2022-12-01T11:10:17;99481.41;;;17.48;54.49
74649;BME280;63168;49.280;7.214;2022-12-01T11:12:45;99481.41;;;17.48;54.64
74649;BME280;63168;49.280;7.214;2022-12-01T11:15:18;99490.13;;;17.50;54.77
74649;BME280;63168;49.280;7.214;2022-12-01T11:17:45;99476.88;;;17.50;54.58
74649;BME280;63168;49.280;7.214;2022-12-01T11:20:27;99476.88;;;17.50;54.48
74649;BME280;63168;49.280;7.214;2022-12-01T11:23:23;99476.78;;;17.52;54.97
74649;BME280;63168;49.280;7.214;2022-12-01T11:25:57;99477.59;;;17.52;54.72
74649;BME280;63168;49.280;7.214;2022-12-01T11:28:23;99477.59;;;17.52;54.97
74649;BME280;63168;49.280;7.214;2022-12-01T11:30:54;99471.47;;;17.52;54.65
74649;BME280;63168;49.280;7.214;2022-12-01T11:33:19;99477.50;;;17.54;55.06
74649;BME280;63168;49.280;7.214;2022-12-01T11:35:47;99475.72;;;17.54;54.79
74649;BME280;63168;49.280;7.214;2022-12-01T11:38:19;99475.72;;;17.54;55.15
74649;BME280;63168;49.280;7.214;2022-12-01T11:40:47;99476.53;;;17.55;54.69
74649;BME280;63168;49.280;7.214;2022-12-01T11:43:21;99476.44;;;17.56;54.75
74649;BME280;63168;49.280;7.214;2022-12-01T11:45:48;99469.44;;;17.55;55.01
74649;BME280;63168;49.280;7.214;2022-12-01T11:48:22;99470.19;;;17.57;54.78
74649;BME280;63168;49.280;7.214;2022-12-01T11:51:02;99474.66;;;17.57;54.66
74649;BME280;63168;49.280;7.214;2022-12-01T11:53:30;99466.69;;;17.57;54.69
74649;BME280;63168;49.280;7.214;2022-12-01T11:56:15;99467.56;;;17.57;54.76
74649;BME280;63168;49.280;7.214;2022-12-01T11:58:42;99465.72;;;17.58;54.62
74649;BME280;63168;49.280;7.214;2022-12-01T12:01:15;99464.91;;;17.57;55.01
74649;BME280;63168;49.280;7.214;2022-12-01T12:03:51;99462.13;;;17.59;54.93
74649;BME280;63168;49.280;7.214;2022-12-01T12:06:26;99464.78;;;17.59;54.96
74649;BME280;63168;49.280;7.214;2022-12-01T12:09:03;99471.78;;;17.60;54.54
74649;BME280;63168;49.280;7.214;2022-12-01T12:11:41;99460.31;;;17.59;54.82
74649;BME280;63168;49.280;7.214;2022-12-01T12:14:27;99469.13;;;17.60;55.02
74649;BME280;63168;49.280;7.214;2022-12-01T12:17:07;99463.81;;;17.60;54.98
74649;BME280;63168;49.280;7.214;2022-12-01T12:19:52;99459.34;;;17.60;54.75
74649;BME280;63168;49.280;7.214;2022-12-01T12:22:26;99462.88;;;17.61;54.45
74649;BME280;63168;49.280;7.214;2022-12-01T12:25:01;99463.72;;;17.61;54.88
74649;BME280;63168;49.280;7.214;2022-12-01T12:27:38;99468.06;;;17.62;54.46
74649;BME280;63168;49.280;7.214;2022-12-01T12:30:19;99465.53;;;17.61;54.76
74649;BME280;63168;49.280;7.214;2022-12-01T12:35:56;99452.16;;;17.62;54.41
74649;BME280;63168;49.280;7.214;2022-12-01T12:38:48;99451.28;;;17.62;54.36
74649;BME280;63168;49.280;7.214;2022-12-01T12:41:24;99446.84;;;17.62;54.62
74649;BME280;63168;49.280;7.214;2022-12-01T12:44:02;99453.84;;;17.63;54.39
74649;BME280;63168;49.280;7.214;2022-12-01T12:46:40;99452.16;;;17.62;54.30
74649;BME280;63168;49.280;7.214;2022-12-01T12:49:22;99449.50;;;17.62;54.55
74649;BME280;63168;49.280;7.214;2022-12-01T12:51:54;99451.19;;;17.63;54.71
74649;BME280;63168;49.280;7.214;2022-12-01T12:54:28;99456.50;;;17.63;54.69
74649;BME280;63168;49.280;7.214;2022-12-01T12:56:59;99451.19;;;17.63;54.66
74649;BME280;63168;49.280;7.214;2022-12-01T12:59:30;99450.25;;;17.65;54.26
74649;BME280;63168;49.280;7.214;2022-12-01T13:02:09;99444.94;;;17.65;54.38
74649;BME280;63168;49.280;7.214;2022-12-01T13:04:40;99450.25;;;17.65;54.59
74649;BME280;63168;49.280;7.214;2022-12-01T13:07:14;99450.25;;;17.65;54.42
74649;BME280;63168;49.280;7.214;2022-12-01T13:09:44;99446.66;;;17.66;54.20
74649;BME280;63168;49.280;7.214;2022-12-01T13:12:23;99436.03;;;17.66;54.22
74649;BME280;63168;49.280;7.214;2022-12-01T13:14:53;99444.94;;;17.65;54.22
74649;BME280;63168;49.280;7.214;2022-12-01T13:17:24;99444.19;;;17.62;54.37